HBFPL LSGC-LSGG
Flight info
| Callsign | HBFPL |
|---|---|
| Flight time | 0h 19m |
| Altitude | 14000 |
| Route | SAPRE |
| Aircraft | PC12/L-SDFGRWY/S |
Departure
| Time | 2026-05-07 13:39 |
|---|---|
| Airport | Les Eplatures Airport (LSGC) |
Arrival
| Time | 2026-05-07 13:58 |
|---|---|
| Airport | Geneva International Airport (LSGG) |
| Time | Latitude | Longitude | Altitude | Speed | Heading |
|---|---|---|---|---|---|
| 2026-05-07 13:35 | 47.08464 | 6.79576 | 3358 ft | 0 kts | 302° |
| 2026-05-07 13:36 | 47.08469 | 6.79569 | 3361 ft | 5 kts | 321° |
| 2026-05-07 13:36 | 47.08522 | 6.79627 | 3366 ft | 16 kts | 49° |
| 2026-05-07 13:36 | 47.08574 | 6.79759 | 3364 ft | 10 kts | 60° |
| 2026-05-07 13:36 | 47.08630 | 6.79855 | 3363 ft | 18 kts | 46° |
| 2026-05-07 13:37 | 47.08678 | 6.79933 | 3359 ft | 9 kts | 40° |
| 2026-05-07 13:37 | 47.08710 | 6.79948 | 3357 ft | 4 kts | 279° |
| 2026-05-07 13:37 | 47.08692 | 6.79913 | 3359 ft | 0 kts | 231° |
| 2026-05-07 13:38 | 47.08677 | 6.79883 | 3363 ft | 21 kts | 235° |
| 2026-05-07 13:39 | 47.08457 | 6.79436 | 3356 ft | 84 kts | 234° |
| 2026-05-07 13:39 | 47.08060 | 6.78660 | 3634 ft | 95 kts | 232° |
| 2026-05-07 13:39 | 47.07651 | 6.77917 | 4208 ft | 90 kts | 230° |
| 2026-05-07 13:39 | 47.07173 | 6.77200 | 4537 ft | 109 kts | 229° |
| 2026-05-07 13:40 | 47.06691 | 6.76416 | 5078 ft | 96 kts | 230° |
| 2026-05-07 13:40 | 47.06269 | 6.75736 | 5602 ft | 87 kts | 231° |
| 2026-05-07 13:40 | 47.05872 | 6.75085 | 6086 ft | 85 kts | 230° |
| 2026-05-07 13:40 | 47.05471 | 6.74399 | 6468 ft | 96 kts | 230° |
| 2026-05-07 13:41 | 47.04981 | 6.73571 | 6846 ft | 119 kts | 230° |
| 2026-05-07 13:41 | 47.04394 | 6.72560 | 7352 ft | 139 kts | 231° |
| 2026-05-07 13:41 | 47.03751 | 6.71486 | 8153 ft | 139 kts | 229° |
| 2026-05-07 13:41 | 47.03099 | 6.70411 | 8953 ft | 143 kts | 228° |
| 2026-05-07 13:42 | 47.02434 | 6.69318 | 9757 ft | 145 kts | 228° |
| 2026-05-07 13:42 | 47.01762 | 6.68205 | 10449 ft | 147 kts | 228° |
| 2026-05-07 13:42 | 47.01072 | 6.67079 | 11146 ft | 149 kts | 225° |
| 2026-05-07 13:42 | 47.00207 | 6.66222 | 11823 ft | 153 kts | 209° |
| 2026-05-07 13:43 | 46.99274 | 6.65462 | 12534 ft | 153 kts | 211° |
| 2026-05-07 13:43 | 46.98345 | 6.64683 | 13263 ft | 156 kts | 211° |
| 2026-05-07 13:43 | 46.97372 | 6.63879 | 13850 ft | 168 kts | 211° |
| 2026-05-07 13:43 | 46.96277 | 6.62969 | 14029 ft | 197 kts | 211° |
| 2026-05-07 13:44 | 46.94993 | 6.61903 | 14040 ft | 225 kts | 211° |
| 2026-05-07 13:44 | 46.93572 | 6.60730 | 14042 ft | 242 kts | 211° |
| 2026-05-07 13:44 | 46.92072 | 6.59495 | 14031 ft | 251 kts | 211° |
| 2026-05-07 13:44 | 46.90478 | 6.58413 | 14030 ft | 256 kts | 199° |
| 2026-05-07 13:45 | 46.88728 | 6.57833 | 14030 ft | 259 kts | 193° |
| 2026-05-07 13:45 | 46.86960 | 6.57287 | 14031 ft | 260 kts | 194° |
| 2026-05-07 13:45 | 46.85197 | 6.56727 | 14029 ft | 261 kts | 194° |
| 2026-05-07 13:45 | 46.83420 | 6.56167 | 14021 ft | 261 kts | 194° |
| 2026-05-07 13:46 | 46.81647 | 6.55613 | 14020 ft | 261 kts | 194° |
| 2026-05-07 13:46 | 46.79867 | 6.55058 | 14024 ft | 261 kts | 194° |
| 2026-05-07 13:46 | 46.78088 | 6.54502 | 14017 ft | 261 kts | 194° |
| 2026-05-07 13:46 | 46.76317 | 6.53949 | 14014 ft | 261 kts | 194° |
| 2026-05-07 13:47 | 46.74539 | 6.53393 | 14013 ft | 261 kts | 194° |
| 2026-05-07 13:47 | 46.72763 | 6.52839 | 14014 ft | 261 kts | 194° |
| 2026-05-07 13:47 | 46.70981 | 6.52285 | 13835 ft | 267 kts | 194° |
| 2026-05-07 13:47 | 46.69147 | 6.51711 | 13464 ft | 271 kts | 194° |
| 2026-05-07 13:48 | 46.67312 | 6.51141 | 13095 ft | 269 kts | 194° |
| 2026-05-07 13:48 | 46.65484 | 6.50574 | 12729 ft | 268 kts | 194° |
| 2026-05-07 13:48 | 46.63669 | 6.50010 | 12364 ft | 266 kts | 193° |
| 2026-05-07 13:48 | 46.61866 | 6.49449 | 11994 ft | 264 kts | 193° |
| 2026-05-07 13:49 | 46.60073 | 6.48893 | 11641 ft | 262 kts | 193° |
| 2026-05-07 13:49 | 46.58294 | 6.48341 | 11290 ft | 261 kts | 193° |
| 2026-05-07 13:49 | 46.56516 | 6.47789 | 10942 ft | 260 kts | 193° |
| 2026-05-07 13:49 | 46.54758 | 6.47245 | 10589 ft | 253 kts | 193° |
| 2026-05-07 13:50 | 46.53091 | 6.46731 | 10190 ft | 241 kts | 193° |
| 2026-05-07 13:50 | 46.52016 | 6.46398 | 9845 ft | 236 kts | 193° |
| 2026-05-07 13:50 | 46.49913 | 6.45746 | 9098 ft | 230 kts | 193° |
| 2026-05-07 13:50 | 46.48883 | 6.45428 | 8614 ft | 221 kts | 193° |
| 2026-05-07 13:51 | 46.47395 | 6.44969 | 7871 ft | 216 kts | 193° |
| 2026-05-07 13:51 | 46.45941 | 6.44516 | 7258 ft | 211 kts | 195° |
| 2026-05-07 13:51 | 46.44239 | 6.43317 | 7012 ft | 206 kts | 216° |
| 2026-05-07 13:51 | 46.43448 | 6.42491 | 7015 ft | 210 kts | 218° |
| 2026-05-07 13:52 | 46.42330 | 6.41102 | 7009 ft | 213 kts | 228° |
| 2026-05-07 13:52 | 46.41389 | 6.39410 | 6778 ft | 215 kts | 233° |
| 2026-05-07 13:52 | 46.40484 | 6.37685 | 6530 ft | 215 kts | 233° |
| 2026-05-07 13:52 | 46.39603 | 6.36048 | 6271 ft | 199 kts | 233° |
| 2026-05-07 13:53 | 46.38757 | 6.34488 | 5994 ft | 194 kts | 232° |
| 2026-05-07 13:53 | 46.37965 | 6.33015 | 5682 ft | 179 kts | 233° |
| 2026-05-07 13:53 | 46.37249 | 6.31556 | 5388 ft | 181 kts | 238° |
| 2026-05-07 13:53 | 46.36544 | 6.30008 | 5096 ft | 182 kts | 238° |
| 2026-05-07 13:54 | 46.35831 | 6.28497 | 4979 ft | 178 kts | 233° |
| 2026-05-07 13:54 | 46.35007 | 6.27271 | 4933 ft | 161 kts | 224° |
| 2026-05-07 13:54 | 46.34251 | 6.26254 | 5021 ft | 149 kts | 225° |
| 2026-05-07 13:54 | 46.33477 | 6.25159 | 4945 ft | 158 kts | 226° |
| 2026-05-07 13:55 | 46.32695 | 6.24032 | 4781 ft | 165 kts | 227° |
| 2026-05-07 13:55 | 46.31902 | 6.22819 | 4595 ft | 164 kts | 229° |
| 2026-05-07 13:55 | 46.31174 | 6.21642 | 4148 ft | 152 kts | 228° |
| 2026-05-07 13:55 | 46.30418 | 6.20575 | 3773 ft | 155 kts | 224° |
| 2026-05-07 13:56 | 46.29634 | 6.19484 | 3401 ft | 157 kts | 227° |
| 2026-05-07 13:56 | 46.28898 | 6.18376 | 3111 ft | 146 kts | 228° |
| 2026-05-07 13:56 | 46.28188 | 6.17391 | 2827 ft | 138 kts | 225° |
| 2026-05-07 13:56 | 46.27550 | 6.16383 | 2535 ft | 125 kts | 237° |
| 2026-05-07 13:57 | 46.26969 | 6.15508 | 2251 ft | 120 kts | 225° |
| 2026-05-07 13:57 | 46.26390 | 6.14682 | 1993 ft | 116 kts | 223° |
| 2026-05-07 13:57 | 46.25818 | 6.13859 | 1723 ft | 115 kts | 226° |
| 2026-05-07 13:57 | 46.25275 | 6.13048 | 1497 ft | 112 kts | 227° |
| 2026-05-07 13:58 | 46.24748 | 6.12282 | 1373 ft | 99 kts | 227° |
| 2026-05-07 13:58 | 46.24316 | 6.11644 | 1369 ft | 79 kts | 226° |
| 2026-05-07 13:58 | 46.23964 | 6.11124 | 1375 ft | 50 kts | 224° |
| 2026-05-07 13:58 | 46.23869 | 6.10976 | 1377 ft | 15 kts | 250° |
| 2026-05-07 13:59 | 46.23939 | 6.10850 | 1380 ft | 19 kts | 313° |
| 2026-05-07 13:59 | 46.23999 | 6.10770 | 1382 ft | 6 kts | 316° |
| 2026-05-07 13:59 | 46.24042 | 6.10688 | 1387 ft | 13 kts | 256° |
| 2026-05-07 13:59 | 46.23944 | 6.10537 | 1385 ft | 28 kts | 226° |
| 2026-05-07 14:00 | 46.23786 | 6.10311 | 1382 ft | 25 kts | 221° |
| 2026-05-07 14:00 | 46.23654 | 6.10120 | 1394 ft | 21 kts | 224° |
| 2026-05-07 14:00 | 46.23640 | 6.10102 | 1394 ft | 0 kts | 218° |
| 2026-05-07 14:01 | 46.23635 | 6.10097 | 1394 ft | 4 kts | 217° |
| 2026-05-07 14:01 | 46.23594 | 6.10010 | 1405 ft | 9 kts | 236° |
| 2026-05-07 14:01 | 46.23598 | 6.09979 | 1396 ft | 1 kts | 315° |
| 2026-05-07 14:01 | 46.23599 | 6.09978 | 1396 ft | 0 kts | 316° |